createdAt,value
2023-02-23T00:02:08.554Z,51.57
2023-02-23T00:04:36.577Z,51.70
2023-02-23T00:07:06.336Z,51.67
2023-02-23T00:09:36.784Z,51.65
2023-02-23T00:12:09.720Z,51.81
2023-02-23T00:14:38.362Z,51.59
2023-02-23T00:17:14.848Z,51.60
2023-02-23T00:19:46.077Z,51.24
2023-02-23T00:22:13.621Z,51.44
2023-02-23T00:24:43.069Z,52.05
2023-02-23T00:27:17.628Z,52.16
2023-02-23T00:29:49.434Z,51.68
2023-02-23T00:32:20.906Z,51.91
2023-02-23T00:34:49.885Z,51.74
2023-02-23T00:37:19.427Z,51.63
2023-02-23T00:39:49.462Z,51.46
2023-02-23T00:42:17.032Z,51.36
2023-02-23T00:44:44.558Z,51.67
2023-02-23T00:47:12.121Z,51.62
2023-02-23T00:49:39.581Z,51.67
2023-02-23T00:52:07.137Z,51.52
2023-02-23T00:54:34.664Z,51.68
2023-02-23T00:57:02.242Z,52.13
2023-02-23T00:59:29.822Z,52.16
2023-02-23T01:01:57.712Z,51.83
2023-02-23T01:04:25.219Z,51.77
2023-02-23T01:06:56.532Z,51.96
2023-02-23T01:09:28.483Z,51.75
2023-02-23T01:11:57.239Z,51.92
2023-02-23T01:14:25.207Z,52.15
2023-02-23T01:16:52.703Z,52.23
2023-02-23T01:19:22.755Z,51.81
2023-02-23T01:21:50.595Z,52.17
2023-02-23T01:24:20.442Z,52.49
2023-02-23T01:26:48.074Z,52.54
2023-02-23T01:29:18.296Z,52.29
2023-02-23T01:31:48.979Z,52.45
2023-02-23T01:34:21.872Z,52.29
2023-02-23T01:36:49.718Z,52.21
2023-02-23T01:39:20.750Z,52.70
2023-02-23T01:41:52.639Z,52.14
2023-02-23T01:44:23.079Z,52.58
2023-02-23T01:46:50.705Z,52.37
2023-02-23T01:49:27.826Z,52.34
2023-02-23T01:52:01.486Z,52.83
2023-02-23T01:54:33.570Z,52.84
2023-02-23T01:57:03.613Z,52.93
2023-02-23T01:59:41.534Z,53.30
2023-02-23T02:02:09.298Z,53.05
2023-02-23T02:04:44.809Z,53.06
2023-02-23T02:07:16.023Z,53.04
2023-02-23T02:10:05.044Z,53.12
2023-02-23T02:12:33.909Z,53.04
2023-02-23T02:15:04.291Z,53.30
2023-02-23T02:17:34.799Z,53.24
2023-02-23T02:20:28.952Z,54.06
2023-02-23T02:23:34.067Z,54.25
2023-02-23T02:26:16.032Z,53.40
2023-02-23T02:29:14.404Z,54.42
2023-02-23T02:32:21.502Z,53.83
2023-02-23T02:34:55.607Z,53.23
2023-02-23T02:38:01.838Z,53.81
2023-02-23T02:40:36.420Z,53.27
2023-02-23T02:44:02.417Z,54.23
2023-02-23T02:46:37.191Z,53.67
2023-02-23T02:49:26.764Z,54.37
2023-02-23T02:52:16.492Z,53.96
2023-02-23T02:54:49.536Z,53.99
2023-02-23T02:57:24.384Z,53.54
2023-02-23T03:00:11.056Z,53.97
2023-02-23T03:03:00.512Z,53.98
2023-02-23T03:06:09.370Z,54.25
2023-02-23T03:09:20.874Z,54.48
2023-02-23T03:12:25.715Z,54.21
2023-02-23T03:15:32.921Z,54.04
2023-02-23T03:18:29.599Z,53.80
2023-02-23T03:21:26.951Z,53.89
2023-02-23T03:24:21.963Z,53.71
2023-02-23T03:27:21.079Z,54.52
2023-02-23T03:30:30.584Z,54.44
2023-02-23T03:33:24.637Z,54.33
2023-02-23T03:36:20.206Z,54.05
2023-02-23T03:39:20.920Z,54.59
2023-02-23T03:42:10.922Z,54.57
2023-02-23T03:45:01.638Z,54.93
2023-02-23T03:47:52.482Z,54.74
2023-02-23T03:50:58.534Z,55.21
2023-02-23T03:53:54.512Z,55.14
2023-02-23T03:56:44.902Z,54.97
2023-02-23T03:59:36.184Z,54.75
2023-02-23T04:02:25.298Z,54.76
2023-02-23T04:05:16.337Z,55.35
2023-02-23T04:08:06.340Z,55.11
2023-02-23T04:10:54.118Z,54.94
2023-02-23T04:13:26.962Z,55.51
2023-02-23T04:15:59.054Z,55.51
2023-02-23T04:18:29.229Z,55.45
2023-02-23T04:20:58.248Z,55.08
2023-02-23T04:23:27.257Z,55.25
2023-02-23T04:25:55.946Z,55.40
2023-02-23T04:28:25.473Z,55.28
2023-02-23T04:30:53.496Z,55.30
2023-02-23T04:33:22.322Z,56.26
2023-02-23T04:35:49.951Z,55.88
2023-02-23T04:38:17.413Z,56.12
2023-02-23T04:40:45.548Z,56.12
2023-02-23T04:43:13.523Z,56.33
2023-02-23T04:45:41.775Z,55.99
2023-02-23T04:48:09.237Z,55.86
2023-02-23T04:50:37.410Z,55.85
2023-02-23T04:53:13.931Z,56.01
2023-02-23T04:55:42.377Z,55.98
2023-02-23T04:58:13.853Z,55.71
2023-02-23T05:00:48.561Z,55.54
2023-02-23T05:03:17.648Z,55.63
2023-02-23T05:05:45.505Z,55.49
2023-02-23T05:08:13.022Z,55.80
2023-02-23T05:10:40.671Z,55.65
2023-02-23T05:13:08.168Z,55.53
2023-02-23T05:15:35.722Z,55.40
2023-02-23T05:18:03.300Z,55.40
2023-02-23T05:20:30.906Z,55.16
2023-02-23T05:22:58.726Z,55.09
2023-02-23T05:25:26.230Z,54.85
2023-02-23T05:27:53.769Z,54.45
2023-02-23T05:30:21.270Z,54.52
2023-02-23T05:32:49.498Z,54.46
2023-02-23T05:35:17.050Z,54.30
2023-02-23T05:37:44.926Z,54.02
2023-02-23T05:40:13.205Z,53.54
2023-02-23T05:42:40.746Z,53.89
2023-02-23T05:45:08.522Z,53.76
2023-02-23T05:47:38.823Z,52.97
2023-02-23T05:50:08.006Z,52.88
2023-02-23T05:52:41.725Z,53.09
2023-02-23T05:55:11.814Z,52.54
2023-02-23T05:57:41.302Z,52.53
2023-02-23T06:00:10.011Z,52.00
2023-02-23T06:02:37.650Z,51.58
2023-02-23T06:05:06.194Z,51.14
2023-02-23T06:07:33.614Z,50.12
2023-02-23T06:10:02.467Z,49.56
2023-02-23T06:12:30.605Z,48.94
2023-02-23T06:14:58.278Z,48.70
2023-02-23T06:17:25.918Z,47.86
2023-02-23T06:19:53.406Z,48.35
2023-02-23T06:22:20.942Z,47.51
2023-02-23T06:24:50.264Z,47.66
2023-02-23T06:27:17.980Z,47.09
2023-02-23T06:29:45.455Z,47.13
2023-02-23T06:32:12.959Z,46.73
2023-02-23T06:34:46.763Z,46.31
2023-02-23T06:37:14.425Z,46.08
2023-02-23T06:39:41.903Z,46.32
2023-02-23T06:42:09.410Z,45.43
2023-02-23T06:44:37.319Z,45.37
2023-02-23T06:47:06.218Z,44.99
2023-02-23T06:49:33.875Z,44.18
2023-02-23T06:52:01.415Z,43.54
2023-02-23T06:54:28.938Z,42.82
2023-02-23T06:56:56.797Z,42.40
2023-02-23T06:59:24.619Z,41.75
2023-02-23T07:01:52.464Z,41.13
2023-02-23T07:04:20.136Z,40.76
2023-02-23T07:06:47.927Z,40.01
2023-02-23T07:09:15.705Z,39.65
2023-02-23T07:11:44.864Z,39.22
2023-02-23T07:14:15.287Z,39.00
2023-02-23T07:16:49.045Z,38.59
2023-02-23T07:19:16.540Z,38.31
2023-02-23T07:21:44.307Z,37.73
2023-02-23T07:24:11.858Z,37.27
2023-02-23T07:26:41.064Z,37.25
2023-02-23T07:29:08.554Z,37.49
2023-02-23T07:31:37.918Z,36.80
2023-02-23T07:34:05.964Z,37.00
2023-02-23T07:36:33.421Z,36.89
2023-02-23T07:39:01.074Z,37.08
2023-02-23T07:41:28.695Z,37.33
2023-02-23T07:43:56.189Z,36.85
2023-02-23T07:46:23.706Z,37.05
2023-02-23T07:48:51.217Z,36.93
2023-02-23T07:51:19.322Z,36.67
2023-02-23T07:53:47.179Z,36.34
2023-02-23T07:56:14.835Z,36.17
2023-02-23T07:58:44.037Z,35.53
2023-02-23T08:01:12.964Z,35.66
2023-02-23T08:03:40.694Z,35.47
2023-02-23T08:06:09.488Z,35.35
2023-02-23T08:08:36.998Z,35.21
2023-02-23T08:11:05.444Z,35.31
2023-02-23T08:13:32.986Z,34.88
2023-02-23T08:16:00.706Z,34.83
2023-02-23T08:18:28.323Z,34.47
2023-02-23T08:21:04.091Z,33.57
2023-02-23T08:23:35.671Z,32.50
2023-02-23T08:26:03.815Z,33.32
2023-02-23T08:28:31.737Z,32.68
2023-02-23T08:30:59.679Z,32.15
2023-02-23T08:33:27.267Z,32.00
2023-02-23T08:35:54.945Z,31.25
2023-02-23T08:38:22.414Z,30.60
2023-02-23T08:40:49.961Z,29.86
2023-02-23T08:43:17.562Z,28.53
2023-02-23T08:45:45.135Z,28.63
2023-02-23T08:48:12.685Z,27.72
2023-02-23T08:50:40.216Z,26.81
2023-02-23T08:53:07.838Z,26.66
2023-02-23T08:55:35.782Z,25.91
2023-02-23T08:58:03.300Z,25.17
2023-02-23T09:00:31.512Z,24.55
2023-02-23T09:02:58.991Z,23.82
2023-02-23T09:05:26.725Z,23.56
2023-02-23T09:07:54.400Z,22.89
2023-02-23T09:10:24.998Z,22.50
2023-02-23T09:12:53.025Z,22.07
2023-02-23T09:15:21.047Z,21.97
2023-02-23T09:17:48.940Z,21.54
2023-02-23T09:20:17.553Z,21.29
2023-02-23T09:22:48.755Z,20.81
2023-02-23T09:25:19.316Z,20.38
2023-02-23T09:27:47.046Z,19.91
2023-02-23T09:30:17.893Z,19.66
2023-02-23T09:32:56.563Z,18.94
2023-02-23T09:35:24.737Z,19.10
2023-02-23T09:37:55.007Z,19.12
2023-02-23T09:40:27.379Z,18.50
2023-02-23T09:43:07.774Z,17.88
2023-02-23T09:46:24.621Z,16.73
2023-02-23T09:48:53.239Z,17.82
2023-02-23T09:51:23.632Z,17.71
2023-02-23T09:53:57.059Z,17.23
2023-02-23T09:56:52.859Z,16.05
2023-02-23T09:59:23.124Z,16.58
2023-02-23T10:01:58.870Z,16.42
2023-02-23T10:04:49.198Z,15.67
2023-02-23T10:07:42.003Z,16.02
2023-02-23T10:10:40.625Z,15.31
2023-02-23T10:13:27.634Z,15.61
2023-02-23T10:16:24.117Z,15.47
2023-02-23T10:19:00.542Z,15.01
2023-02-23T10:21:36.256Z,14.73
2023-02-23T10:24:27.596Z,14.95
2023-02-23T10:27:01.167Z,14.51
2023-02-23T10:29:37.354Z,13.97
2023-02-23T10:32:19.560Z,14.14
2023-02-23T10:34:51.181Z,14.49
2023-02-23T10:37:18.866Z,14.37
2023-02-23T10:39:49.290Z,13.96
2023-02-23T10:42:22.753Z,13.58
2023-02-23T10:44:50.735Z,13.77
2023-02-23T10:47:22.883Z,13.39
2023-02-23T10:49:54.165Z,13.18
2023-02-23T10:52:21.689Z,13.50
2023-02-23T10:54:53.285Z,13.18
2023-02-23T10:57:34.387Z,13.35
2023-02-23T11:00:27.942Z,12.66
2023-02-23T11:02:58.400Z,13.24
2023-02-23T11:05:43.481Z,12.74
2023-02-23T11:08:29.407Z,12.50
2023-02-23T11:11:03.976Z,12.68
2023-02-23T11:13:36.320Z,13.00
2023-02-23T11:16:14.449Z,12.64
2023-02-23T11:18:50.591Z,12.31
2023-02-23T11:21:35.498Z,12.16
2023-02-23T11:24:26.693Z,11.53
2023-02-23T11:27:00.463Z,11.89
2023-02-23T11:29:40.262Z,11.62
2023-02-23T11:32:13.719Z,11.50
2023-02-23T11:34:43.554Z,11.70
2023-02-23T11:37:15.195Z,11.23
2023-02-23T11:39:58.264Z,11.92
2023-02-23T11:42:33.803Z,11.46
2023-02-23T11:45:20.707Z,11.86
2023-02-23T11:47:50.917Z,12.50
2023-02-23T11:50:38.566Z,12.28
2023-02-23T11:53:15.543Z,12.27
2023-02-23T11:55:54.738Z,12.37
2023-02-23T11:58:22.838Z,11.95
2023-02-23T12:01:02.100Z,12.11
2023-02-23T12:03:33.397Z,11.72
2023-02-23T12:06:02.474Z,11.70
2023-02-23T12:08:45.878Z,11.61
2023-02-23T12:11:20.757Z,11.13
2023-02-23T12:14:02.585Z,11.50
2023-02-23T12:16:39.063Z,11.35
2023-02-23T12:19:21.894Z,11.50
2023-02-23T12:22:23.993Z,11.45
2023-02-23T12:25:02.940Z,11.33
2023-02-23T12:27:50.539Z,11.53
2023-02-23T12:30:43.875Z,12.31
2023-02-23T12:33:48.990Z,13.57
2023-02-23T12:36:51.713Z,13.37
2023-02-23T12:39:31.509Z,14.63
2023-02-23T12:42:13.085Z,15.43
2023-02-23T12:44:53.854Z,17.48
2023-02-23T12:47:54.898Z,19.42
2023-02-23T12:50:59.826Z,21.56
2023-02-23T12:53:45.486Z,23.39
2023-02-23T12:56:35.555Z,24.72
2023-02-23T12:59:13.552Z,25.92
2023-02-23T13:01:59.651Z,26.98
2023-02-23T13:04:34.294Z,26.28
2023-02-23T13:07:21.084Z,28.57
2023-02-23T13:09:57.601Z,27.66
2023-02-23T13:12:52.988Z,30.21
2023-02-23T13:15:35.371Z,28.40
2023-02-23T13:18:18.032Z,30.84
2023-02-23T13:20:52.075Z,29.59
2023-02-23T13:24:01.471Z,32.19
2023-02-23T13:26:46.935Z,32.35
2023-02-23T13:29:36.775Z,33.27
2023-02-23T13:32:06.370Z,31.59
2023-02-23T13:34:42.503Z,32.31
2023-02-23T13:37:14.282Z,32.20
2023-02-23T13:40:12.147Z,35.46
2023-02-23T13:43:17.850Z,35.13
2023-02-23T13:46:00.605Z,35.18
2023-02-23T13:48:55.302Z,34.40
2023-02-23T13:51:35.576Z,34.66
2023-02-23T13:54:24.382Z,36.75
2023-02-23T13:57:01.424Z,35.05
2023-02-23T13:59:33.486Z,34.68
2023-02-23T14:02:16.953Z,35.52
2023-02-23T14:04:47.376Z,35.57
2023-02-23T14:07:29.169Z,35.91
2023-02-23T14:10:00.959Z,36.04
2023-02-23T14:12:34.567Z,36.91
2023-02-23T14:15:37.936Z,37.39
2023-02-23T14:18:30.500Z,38.67
2023-02-23T14:21:03.678Z,36.25
2023-02-23T14:23:57.504Z,38.20
2023-02-23T14:26:28.005Z,37.03
2023-02-23T14:29:17.627Z,39.22
2023-02-23T14:31:55.472Z,39.05
2023-02-23T14:34:23.616Z,37.62
2023-02-23T14:36:56.171Z,37.43
2023-02-23T14:39:29.062Z,38.39
2023-02-23T14:42:00.078Z,38.56
2023-02-23T14:44:36.697Z,38.89
2023-02-23T14:47:07.776Z,38.27
2023-02-23T14:49:59.578Z,41.29
2023-02-23T14:52:30.392Z,38.54
2023-02-23T14:55:13.432Z,41.83
2023-02-23T14:57:43.251Z,40.02
2023-02-23T15:00:32.699Z,41.25
2023-02-23T15:03:06.020Z,40.00
2023-02-23T15:05:41.091Z,40.46
2023-02-23T15:08:13.423Z,40.73
2023-02-23T15:10:43.588Z,40.65
2023-02-23T15:13:30.611Z,42.88
2023-02-23T15:16:13.918Z,42.12
2023-02-23T15:18:43.779Z,41.09
2023-02-23T15:21:15.803Z,40.95
2023-02-23T15:23:49.726Z,41.63
2023-02-23T15:26:24.775Z,41.67
2023-02-23T15:28:52.735Z,41.42
2023-02-23T15:31:20.576Z,42.13
2023-02-23T15:33:50.896Z,41.35
2023-02-23T15:36:27.553Z,42.93
2023-02-23T15:38:57.231Z,42.12
2023-02-23T15:41:36.754Z,43.07
2023-02-23T15:44:32.247Z,44.09
2023-02-23T15:47:06.289Z,42.79
2023-02-23T15:49:42.193Z,44.24
2023-02-23T15:52:17.904Z,43.57
2023-02-23T15:54:58.328Z,43.83
2023-02-23T15:57:49.729Z,44.72
2023-02-23T16:00:32.463Z,43.22
2023-02-23T16:03:05.062Z,43.33
2023-02-23T16:05:46.599Z,42.87
2023-02-23T16:08:25.495Z,44.13
2023-02-23T16:11:12.085Z,44.36
2023-02-23T16:13:46.903Z,43.75
2023-02-23T16:16:20.862Z,43.46
2023-02-23T16:18:54.021Z,43.76
2023-02-23T16:21:25.448Z,43.66
2023-02-23T16:23:54.923Z,43.42
2023-02-23T16:26:31.856Z,43.96
2023-02-23T16:29:02.203Z,43.49
2023-02-23T16:31:46.852Z,45.31
2023-02-23T16:34:35.765Z,44.99
2023-02-23T16:37:15.818Z,43.21
2023-02-23T16:39:44.204Z,43.38
2023-02-23T16:42:33.292Z,44.77
2023-02-23T16:45:02.066Z,43.48
2023-02-23T16:47:36.591Z,43.91
2023-02-23T16:50:20.782Z,45.94
2023-02-23T16:52:54.150Z,43.30
2023-02-23T16:55:27.487Z,43.86
2023-02-23T16:57:59.434Z,44.57
2023-02-23T17:00:32.766Z,44.48
2023-02-23T17:03:01.112Z,43.76
2023-02-23T17:05:30.361Z,43.35
2023-02-23T17:07:59.078Z,44.07
2023-02-23T17:10:32.571Z,44.75
2023-02-23T17:13:06.641Z,44.57
2023-02-23T17:15:56.261Z,45.38
2023-02-23T17:18:29.928Z,44.46
2023-02-23T17:20:59.805Z,44.27
2023-02-23T17:23:48.240Z,44.92
2023-02-23T17:26:17.255Z,44.85
2023-02-23T17:28:45.255Z,44.31
2023-02-23T17:31:13.729Z,44.31
2023-02-23T17:33:45.584Z,44.82
2023-02-23T17:36:15.725Z,45.34
2023-02-23T17:38:45.046Z,45.06
2023-02-23T17:41:18.153Z,46.50
2023-02-23T17:43:46.583Z,46.18
2023-02-23T17:46:19.559Z,46.00
2023-02-23T17:48:48.689Z,45.62
2023-02-23T17:51:17.041Z,46.30
2023-02-23T17:53:44.701Z,45.46
2023-02-23T17:56:12.354Z,45.84
2023-02-23T17:58:40.473Z,46.10
2023-02-23T18:01:08.685Z,46.42
2023-02-23T18:03:37.380Z,46.14
2023-02-23T18:06:11.086Z,46.00
2023-02-23T18:08:40.927Z,45.89
2023-02-23T18:11:09.059Z,45.28
2023-02-23T18:13:37.108Z,46.29
2023-02-23T18:16:09.422Z,46.10
2023-02-23T18:18:44.409Z,46.63
2023-02-23T18:21:14.513Z,45.94
2023-02-23T18:23:43.028Z,46.03
2023-02-23T18:26:17.353Z,46.43
2023-02-23T18:28:46.427Z,46.36
2023-02-23T18:31:20.501Z,46.87
2023-02-23T18:33:55.414Z,46.06
2023-02-23T18:36:26.355Z,46.72
2023-02-23T18:38:55.741Z,45.72
2023-02-23T18:41:24.041Z,46.33
2023-02-23T18:43:52.673Z,46.47
2023-02-23T18:46:22.713Z,46.25
2023-02-23T18:48:55.360Z,46.59
2023-02-23T18:51:23.981Z,47.14
2023-02-23T18:53:53.163Z,46.81
2023-02-23T18:56:28.314Z,47.17
2023-02-23T18:58:59.890Z,46.99
2023-02-23T19:01:30.207Z,46.95
2023-02-23T19:04:00.632Z,47.25
2023-02-23T19:06:30.806Z,46.52
2023-02-23T19:09:00.185Z,46.62
2023-02-23T19:11:32.184Z,47.51
2023-02-23T19:14:03.783Z,46.80
2023-02-23T19:16:34.991Z,46.81
2023-02-23T19:19:04.765Z,46.70
2023-02-23T19:21:32.620Z,46.61
2023-02-23T19:24:02.461Z,46.71
2023-02-23T19:26:31.059Z,46.90
2023-02-23T19:29:07.714Z,46.71
2023-02-23T19:31:35.340Z,46.73
2023-02-23T19:34:05.166Z,46.59
2023-02-23T19:36:33.883Z,46.36
2023-02-23T19:39:11.133Z,47.27
2023-02-23T19:41:40.279Z,46.83
2023-02-23T19:44:08.926Z,46.81
2023-02-23T19:46:37.916Z,46.36
2023-02-23T19:49:06.140Z,47.19
2023-02-23T19:51:33.741Z,46.77
2023-02-23T19:54:01.525Z,46.71
2023-02-23T19:56:29.747Z,46.59
2023-02-23T19:58:58.103Z,46.28
2023-02-23T20:01:30.259Z,46.81
2023-02-23T20:04:02.265Z,46.90
2023-02-23T20:06:34.823Z,46.84
2023-02-23T20:09:05.948Z,46.47
2023-02-23T20:11:33.882Z,46.63
2023-02-23T20:14:03.405Z,46.80
2023-02-23T20:16:37.438Z,47.41
2023-02-23T20:19:06.676Z,46.64
2023-02-23T20:21:37.113Z,47.00
2023-02-23T20:24:05.679Z,47.00
2023-02-23T20:26:37.348Z,46.84
2023-02-23T20:29:10.856Z,46.88
2023-02-23T20:31:42.059Z,47.00
2023-02-23T20:34:11.236Z,46.70
2023-02-23T20:36:41.122Z,46.60
2023-02-23T20:39:11.104Z,46.50
2023-02-23T20:41:43.473Z,46.69
2023-02-23T20:44:12.635Z,46.17
2023-02-23T20:46:40.865Z,45.80
2023-02-23T20:49:11.827Z,46.24
2023-02-23T20:51:44.792Z,46.71
2023-02-23T20:54:13.514Z,47.10
2023-02-23T20:56:42.511Z,46.57
2023-02-23T20:59:11.423Z,46.70
2023-02-23T21:01:44.337Z,46.33
2023-02-23T21:04:13.249Z,46.56
2023-02-23T21:06:40.912Z,46.10
2023-02-23T21:09:12.876Z,46.76
2023-02-23T21:11:40.440Z,45.97
2023-02-23T21:14:08.534Z,45.89
2023-02-23T21:16:40.916Z,46.00
2023-02-23T21:19:10.418Z,47.06
2023-02-23T21:21:40.278Z,46.57
2023-02-23T21:24:09.553Z,46.00
2023-02-23T21:26:37.275Z,46.30
2023-02-23T21:29:11.868Z,46.79
2023-02-23T21:31:39.818Z,46.21
2023-02-23T21:34:08.533Z,46.82
2023-02-23T21:36:36.232Z,46.30
2023-02-23T21:39:04.618Z,46.14
2023-02-23T21:41:34.205Z,46.21
2023-02-23T21:44:02.438Z,46.30
2023-02-23T21:46:29.960Z,46.35
2023-02-23T21:48:57.888Z,46.16
2023-02-23T21:51:26.164Z,45.83
2023-02-23T21:53:58.102Z,46.44
2023-02-23T21:56:25.683Z,46.21
2023-02-23T21:58:58.082Z,45.69
2023-02-23T22:01:29.240Z,46.38
2023-02-23T22:03:58.018Z,46.55
2023-02-23T22:06:28.807Z,46.63
2023-02-23T22:08:57.365Z,46.01
2023-02-23T22:11:27.620Z,46.37
2023-02-23T22:14:01.061Z,45.91
2023-02-23T22:16:31.892Z,45.85
2023-02-23T22:19:03.887Z,46.13
2023-02-23T22:21:33.518Z,46.16
2023-02-23T22:24:05.506Z,45.61
2023-02-23T22:26:34.668Z,46.31
2023-02-23T22:29:02.202Z,45.75
2023-02-23T22:31:29.854Z,45.39
2023-02-23T22:33:57.514Z,45.55
2023-02-23T22:36:25.362Z,45.88
2023-02-23T22:38:52.865Z,46.16
2023-02-23T22:41:20.801Z,45.46
2023-02-23T22:43:48.398Z,45.66
2023-02-23T22:46:17.233Z,45.21
2023-02-23T22:48:45.610Z,46.03
2023-02-23T22:51:15.993Z,45.90
2023-02-23T22:53:43.997Z,45.79
2023-02-23T22:56:12.094Z,46.18
2023-02-23T22:58:42.210Z,46.19
2023-02-23T23:01:11.709Z,45.54
2023-02-23T23:03:39.775Z,45.79
2023-02-23T23:06:13.058Z,46.32
2023-02-23T23:08:42.145Z,45.83
2023-02-23T23:11:31.645Z,45.75
2023-02-23T23:14:03.197Z,45.94
2023-02-23T23:16:33.690Z,45.98
2023-02-23T23:19:04.567Z,45.73
2023-02-23T23:21:34.434Z,45.69
2023-02-23T23:24:07.332Z,46.32
2023-02-23T23:26:39.837Z,46.00
2023-02-23T23:29:11.655Z,46.02
2023-02-23T23:31:41.228Z,45.99
2023-02-23T23:34:10.725Z,45.46
2023-02-23T23:36:46.302Z,46.03
2023-02-23T23:39:16.423Z,45.51
2023-02-23T23:41:50.873Z,45.62
2023-02-23T23:44:21.624Z,45.02
2023-02-23T23:46:53.165Z,45.55
2023-02-23T23:49:23.012Z,45.78
2023-02-23T23:51:56.295Z,45.07
2023-02-23T23:54:27.173Z,44.68
2023-02-23T23:56:54.853Z,44.71
2023-02-23T23:59:23.927Z,44.77
